sensor_id;sensor_type;location;lat;lon;timestamp;P1;durP1;ratioP1;P2;durP2;ratioP2
71916;SDS011;59793;46.506;6.674;2024-01-11T00:00:04;31.15;;;18.73;;
71916;SDS011;59793;46.506;6.674;2024-01-11T00:02:30;31.27;;;18.02;;
71916;SDS011;59793;46.506;6.674;2024-01-11T00:04:55;32.10;;;18.10;;
71916;SDS011;59793;46.506;6.674;2024-01-11T00:07:21;32.85;;;19.40;;
71916;SDS011;59793;46.506;6.674;2024-01-11T00:09:46;30.67;;;17.55;;
71916;SDS011;59793;46.506;6.674;2024-01-11T00:12:11;34.20;;;18.98;;
71916;SDS011;59793;46.506;6.674;2024-01-11T00:14:37;28.17;;;17.23;;
71916;SDS011;59793;46.506;6.674;2024-01-11T00:17:02;34.15;;;19.83;;
71916;SDS011;59793;46.506;6.674;2024-01-11T00:19:27;33.72;;;18.85;;
71916;SDS011;59793;46.506;6.674;2024-01-11T00:21:53;31.92;;;18.38;;
71916;SDS011;59793;46.506;6.674;2024-01-11T00:24:18;31.33;;;17.70;;
71916;SDS011;59793;46.506;6.674;2024-01-11T00:26:43;31.45;;;18.13;;
71916;SDS011;59793;46.506;6.674;2024-01-11T00:29:08;32.58;;;17.05;;
71916;SDS011;59793;46.506;6.674;2024-01-11T00:31:34;30.85;;;18.85;;
71916;SDS011;59793;46.506;6.674;2024-01-11T00:34:00;28.25;;;15.90;;
71916;SDS011;59793;46.506;6.674;2024-01-11T00:36:25;31.23;;;17.58;;
71916;SDS011;59793;46.506;6.674;2024-01-11T00:38:51;28.38;;;16.67;;
71916;SDS011;59793;46.506;6.674;2024-01-11T00:41:16;31.15;;;17.38;;
71916;SDS011;59793;46.506;6.674;2024-01-11T00:43:42;30.98;;;18.10;;
71916;SDS011;59793;46.506;6.674;2024-01-11T00:46:07;34.78;;;17.05;;
71916;SDS011;59793;46.506;6.674;2024-01-11T00:48:33;31.63;;;17.23;;
71916;SDS011;59793;46.506;6.674;2024-01-11T00:50:58;31.70;;;17.65;;
71916;SDS011;59793;46.506;6.674;2024-01-11T00:53:23;29.73;;;17.77;;
71916;SDS011;59793;46.506;6.674;2024-01-11T00:55:48;27.00;;;15.82;;
71916;SDS011;59793;46.506;6.674;2024-01-11T00:58:14;32.13;;;17.67;;
71916;SDS011;59793;46.506;6.674;2024-01-11T01:00:39;33.15;;;18.08;;
71916;SDS011;59793;46.506;6.674;2024-01-11T01:03:04;29.95;;;17.15;;
71916;SDS011;59793;46.506;6.674;2024-01-11T01:05:30;29.35;;;16.80;;
71916;SDS011;59793;46.506;6.674;2024-01-11T01:07:55;28.15;;;17.02;;
71916;SDS011;59793;46.506;6.674;2024-01-11T01:10:20;30.30;;;18.02;;
71916;SDS011;59793;46.506;6.674;2024-01-11T01:12:46;29.95;;;18.10;;
71916;SDS011;59793;46.506;6.674;2024-01-11T01:15:11;27.70;;;15.77;;
71916;SDS011;59793;46.506;6.674;2024-01-11T01:17:36;27.33;;;16.55;;
71916;SDS011;59793;46.506;6.674;2024-01-11T01:20:02;28.73;;;17.52;;
71916;SDS011;59793;46.506;6.674;2024-01-11T01:22:28;29.42;;;17.75;;
71916;SDS011;59793;46.506;6.674;2024-01-11T01:24:53;27.58;;;16.55;;
71916;SDS011;59793;46.506;6.674;2024-01-11T01:27:19;29.88;;;17.30;;
71916;SDS011;59793;46.506;6.674;2024-01-11T01:29:44;28.20;;;16.27;;
71916;SDS011;59793;46.506;6.674;2024-01-11T01:32:11;30.40;;;16.95;;
71916;SDS011;59793;46.506;6.674;2024-01-11T01:34:36;27.85;;;16.25;;
71916;SDS011;59793;46.506;6.674;2024-01-11T01:37:01;28.88;;;15.65;;
71916;SDS011;59793;46.506;6.674;2024-01-11T01:39:27;28.92;;;17.13;;
71916;SDS011;59793;46.506;6.674;2024-01-11T01:41:52;30.45;;;16.52;;
71916;SDS011;59793;46.506;6.674;2024-01-11T01:44:17;29.05;;;17.20;;
71916;SDS011;59793;46.506;6.674;2024-01-11T01:46:43;28.27;;;15.57;;
71916;SDS011;59793;46.506;6.674;2024-01-11T01:49:08;29.27;;;15.98;;
71916;SDS011;59793;46.506;6.674;2024-01-11T01:51:36;29.77;;;16.05;;
71916;SDS011;59793;46.506;6.674;2024-01-11T01:54:02;27.75;;;16.10;;
71916;SDS011;59793;46.506;6.674;2024-01-11T01:56:28;31.20;;;18.00;;
71916;SDS011;59793;46.506;6.674;2024-01-11T01:58:53;28.77;;;16.60;;
71916;SDS011;59793;46.506;6.674;2024-01-11T02:01:20;32.20;;;18.13;;
71916;SDS011;59793;46.506;6.674;2024-01-11T02:03:46;26.65;;;15.55;;
71916;SDS011;59793;46.506;6.674;2024-01-11T02:06:14;28.67;;;16.95;;
71916;SDS011;59793;46.506;6.674;2024-01-11T02:08:41;29.58;;;16.80;;
71916;SDS011;59793;46.506;6.674;2024-01-11T02:11:08;30.25;;;17.63;;
71916;SDS011;59793;46.506;6.674;2024-01-11T02:13:35;29.45;;;17.20;;
71916;SDS011;59793;46.506;6.674;2024-01-11T02:16:00;27.60;;;16.17;;
71916;SDS011;59793;46.506;6.674;2024-01-11T02:18:26;27.20;;;16.23;;
71916;SDS011;59793;46.506;6.674;2024-01-11T02:20:51;32.92;;;17.52;;
71916;SDS011;59793;46.506;6.674;2024-01-11T02:23:17;32.35;;;17.08;;
71916;SDS011;59793;46.506;6.674;2024-01-11T02:25:46;27.17;;;16.13;;
71916;SDS011;59793;46.506;6.674;2024-01-11T02:28:11;26.85;;;16.27;;
71916;SDS011;59793;46.506;6.674;2024-01-11T02:30:37;30.55;;;16.40;;
71916;SDS011;59793;46.506;6.674;2024-01-11T02:33:02;26.52;;;16.00;;
71916;SDS011;59793;46.506;6.674;2024-01-11T02:35:29;26.63;;;15.93;;
71916;SDS011;59793;46.506;6.674;2024-01-11T02:37:55;31.27;;;16.40;;
71916;SDS011;59793;46.506;6.674;2024-01-11T02:40:21;26.73;;;16.00;;
71916;SDS011;59793;46.506;6.674;2024-01-11T02:42:47;26.50;;;15.80;;
71916;SDS011;59793;46.506;6.674;2024-01-11T02:45:12;24.52;;;15.55;;
71916;SDS011;59793;46.506;6.674;2024-01-11T02:47:38;30.67;;;16.30;;
71916;SDS011;59793;46.506;6.674;2024-01-11T02:50:04;27.02;;;16.60;;
71916;SDS011;59793;46.506;6.674;2024-01-11T02:52:32;29.40;;;15.70;;
71916;SDS011;59793;46.506;6.674;2024-01-11T02:54:57;28.73;;;16.75;;
71916;SDS011;59793;46.506;6.674;2024-01-11T02:57:22;29.23;;;17.13;;
71916;SDS011;59793;46.506;6.674;2024-01-11T02:59:49;28.67;;;16.88;;
71916;SDS011;59793;46.506;6.674;2024-01-11T03:02:14;27.17;;;16.27;;
71916;SDS011;59793;46.506;6.674;2024-01-11T03:04:40;29.63;;;15.57;;
71916;SDS011;59793;46.506;6.674;2024-01-11T03:07:05;26.88;;;15.68;;
71916;SDS011;59793;46.506;6.674;2024-01-11T03:09:30;25.80;;;14.80;;
71916;SDS011;59793;46.506;6.674;2024-01-11T03:11:56;26.80;;;15.25;;
71916;SDS011;59793;46.506;6.674;2024-01-11T03:14:21;30.02;;;15.77;;
71916;SDS011;59793;46.506;6.674;2024-01-11T03:16:46;25.65;;;15.23;;
71916;SDS011;59793;46.506;6.674;2024-01-11T03:19:11;31.38;;;17.00;;
71916;SDS011;59793;46.506;6.674;2024-01-11T03:21:40;29.17;;;15.98;;
71916;SDS011;59793;46.506;6.674;2024-01-11T03:24:08;27.10;;;16.40;;
71916;SDS011;59793;46.506;6.674;2024-01-11T03:26:34;29.00;;;17.58;;
71916;SDS011;59793;46.506;6.674;2024-01-11T03:28:59;29.77;;;16.50;;
71916;SDS011;59793;46.506;6.674;2024-01-11T03:31:24;30.63;;;15.90;;
71916;SDS011;59793;46.506;6.674;2024-01-11T03:33:49;27.80;;;15.73;;
71916;SDS011;59793;46.506;6.674;2024-01-11T03:36:15;28.98;;;16.40;;
71916;SDS011;59793;46.506;6.674;2024-01-11T03:38:40;27.92;;;15.73;;
71916;SDS011;59793;46.506;6.674;2024-01-11T03:41:09;29.23;;;16.00;;
71916;SDS011;59793;46.506;6.674;2024-01-11T03:43:35;32.55;;;16.58;;
71916;SDS011;59793;46.506;6.674;2024-01-11T03:46:01;30.42;;;15.27;;
71916;SDS011;59793;46.506;6.674;2024-01-11T03:48:26;31.08;;;16.50;;
71916;SDS011;59793;46.506;6.674;2024-01-11T03:50:52;30.48;;;17.60;;
71916;SDS011;59793;46.506;6.674;2024-01-11T03:53:17;28.42;;;15.48;;
71916;SDS011;59793;46.506;6.674;2024-01-11T03:55:42;29.35;;;17.40;;
71916;SDS011;59793;46.506;6.674;2024-01-11T03:58:07;29.38;;;16.10;;
71916;SDS011;59793;46.506;6.674;2024-01-11T04:00:33;28.77;;;17.23;;
71916;SDS011;59793;46.506;6.674;2024-01-11T04:02:58;30.55;;;16.10;;
71916;SDS011;59793;46.506;6.674;2024-01-11T04:05:24;28.27;;;16.48;;
71916;SDS011;59793;46.506;6.674;2024-01-11T04:07:49;33.33;;;16.90;;
71916;SDS011;59793;46.506;6.674;2024-01-11T04:10:15;30.73;;;16.92;;
71916;SDS011;59793;46.506;6.674;2024-01-11T04:12:42;29.17;;;15.88;;
71916;SDS011;59793;46.506;6.674;2024-01-11T04:15:08;33.70;;;16.92;;
71916;SDS011;59793;46.506;6.674;2024-01-11T04:17:33;30.50;;;17.15;;
71916;SDS011;59793;46.506;6.674;2024-01-11T04:19:58;26.58;;;14.95;;
71916;SDS011;59793;46.506;6.674;2024-01-11T04:22:24;30.00;;;16.73;;
71916;SDS011;59793;46.506;6.674;2024-01-11T04:24:49;26.52;;;15.52;;
71916;SDS011;59793;46.506;6.674;2024-01-11T04:27:14;29.40;;;16.95;;
71916;SDS011;59793;46.506;6.674;2024-01-11T04:29:40;26.70;;;16.17;;
71916;SDS011;59793;46.506;6.674;2024-01-11T04:32:05;31.73;;;16.30;;
71916;SDS011;59793;46.506;6.674;2024-01-11T04:34:30;29.17;;;16.45;;
71916;SDS011;59793;46.506;6.674;2024-01-11T04:36:56;24.80;;;14.48;;
71916;SDS011;59793;46.506;6.674;2024-01-11T04:39:21;29.13;;;15.85;;
71916;SDS011;59793;46.506;6.674;2024-01-11T04:41:46;28.58;;;16.20;;
71916;SDS011;59793;46.506;6.674;2024-01-11T04:44:12;23.25;;;13.00;;
71916;SDS011;59793;46.506;6.674;2024-01-11T04:46:38;28.15;;;15.07;;
71916;SDS011;59793;46.506;6.674;2024-01-11T04:49:03;29.00;;;15.77;;
71916;SDS011;59793;46.506;6.674;2024-01-11T04:51:28;24.20;;;14.02;;
71916;SDS011;59793;46.506;6.674;2024-01-11T04:53:54;28.10;;;15.82;;
71916;SDS011;59793;46.506;6.674;2024-01-11T04:56:19;27.20;;;15.02;;
71916;SDS011;59793;46.506;6.674;2024-01-11T04:58:45;27.25;;;15.40;;
71916;SDS011;59793;46.506;6.674;2024-01-11T05:01:14;28.17;;;15.27;;
71916;SDS011;59793;46.506;6.674;2024-01-11T05:03:40;26.98;;;15.25;;
71916;SDS011;59793;46.506;6.674;2024-01-11T05:06:06;27.40;;;14.68;;
71916;SDS011;59793;46.506;6.674;2024-01-11T05:08:32;25.00;;;15.25;;
71916;SDS011;59793;46.506;6.674;2024-01-11T05:10:57;26.48;;;15.30;;
71916;SDS011;59793;46.506;6.674;2024-01-11T05:13:22;25.40;;;14.63;;
71916;SDS011;59793;46.506;6.674;2024-01-11T05:15:48;25.80;;;14.88;;
71916;SDS011;59793;46.506;6.674;2024-01-11T05:18:13;25.42;;;15.63;;
71916;SDS011;59793;46.506;6.674;2024-01-11T05:20:39;28.02;;;16.73;;
71916;SDS011;59793;46.506;6.674;2024-01-11T05:23:04;25.98;;;16.30;;
71916;SDS011;59793;46.506;6.674;2024-01-11T05:25:30;27.63;;;15.90;;
71916;SDS011;59793;46.506;6.674;2024-01-11T05:27:59;28.33;;;15.68;;
71916;SDS011;59793;46.506;6.674;2024-01-11T05:30:25;24.75;;;15.00;;
71916;SDS011;59793;46.506;6.674;2024-01-11T05:32:51;25.73;;;14.40;;
71916;SDS011;59793;46.506;6.674;2024-01-11T05:35:16;24.70;;;14.77;;
71916;SDS011;59793;46.506;6.674;2024-01-11T05:37:42;26.98;;;15.55;;
71916;SDS011;59793;46.506;6.674;2024-01-11T05:40:07;25.20;;;13.55;;
71916;SDS011;59793;46.506;6.674;2024-01-11T05:42:33;24.67;;;14.52;;
71916;SDS011;59793;46.506;6.674;2024-01-11T05:44:58;24.30;;;15.35;;
71916;SDS011;59793;46.506;6.674;2024-01-11T05:47:23;28.27;;;16.15;;
71916;SDS011;59793;46.506;6.674;2024-01-11T05:49:49;26.52;;;14.25;;
71916;SDS011;59793;46.506;6.674;2024-01-11T05:52:14;24.08;;;13.98;;
71916;SDS011;59793;46.506;6.674;2024-01-11T05:54:40;24.08;;;14.70;;
71916;SDS011;59793;46.506;6.674;2024-01-11T05:57:05;25.27;;;14.65;;
71916;SDS011;59793;46.506;6.674;2024-01-11T05:59:32;24.35;;;14.40;;
71916;SDS011;59793;46.506;6.674;2024-01-11T06:01:57;23.92;;;13.50;;
71916;SDS011;59793;46.506;6.674;2024-01-11T06:04:25;22.38;;;13.57;;
71916;SDS011;59793;46.506;6.674;2024-01-11T06:06:51;30.02;;;16.73;;
71916;SDS011;59793;46.506;6.674;2024-01-11T06:09:16;27.35;;;14.93;;
71916;SDS011;59793;46.506;6.674;2024-01-11T06:11:41;28.60;;;15.48;;
71916;SDS011;59793;46.506;6.674;2024-01-11T06:14:07;28.08;;;16.00;;
71916;SDS011;59793;46.506;6.674;2024-01-11T06:16:32;25.65;;;14.88;;
71916;SDS011;59793;46.506;6.674;2024-01-11T06:18:57;24.65;;;13.88;;
71916;SDS011;59793;46.506;6.674;2024-01-11T06:21:23;26.25;;;15.43;;
71916;SDS011;59793;46.506;6.674;2024-01-11T06:23:48;25.35;;;14.05;;
71916;SDS011;59793;46.506;6.674;2024-01-11T06:26:14;25.67;;;13.98;;
71916;SDS011;59793;46.506;6.674;2024-01-11T06:28:39;23.75;;;14.07;;
71916;SDS011;59793;46.506;6.674;2024-01-11T06:31:05;23.73;;;12.88;;
71916;SDS011;59793;46.506;6.674;2024-01-11T06:33:31;24.30;;;14.80;;
71916;SDS011;59793;46.506;6.674;2024-01-11T06:35:57;25.92;;;14.45;;
71916;SDS011;59793;46.506;6.674;2024-01-11T06:38:23;26.65;;;14.68;;
71916;SDS011;59793;46.506;6.674;2024-01-11T06:40:48;24.08;;;14.82;;
71916;SDS011;59793;46.506;6.674;2024-01-11T06:43:14;28.35;;;16.10;;
71916;SDS011;59793;46.506;6.674;2024-01-11T06:45:40;24.95;;;14.10;;
71916;SDS011;59793;46.506;6.674;2024-01-11T06:48:07;22.92;;;12.73;;
71916;SDS011;59793;46.506;6.674;2024-01-11T06:50:33;29.85;;;14.60;;
71916;SDS011;59793;46.506;6.674;2024-01-11T06:52:58;28.05;;;15.23;;
71916;SDS011;59793;46.506;6.674;2024-01-11T06:55:23;26.58;;;14.82;;
71916;SDS011;59793;46.506;6.674;2024-01-11T06:57:49;28.20;;;15.75;;
71916;SDS011;59793;46.506;6.674;2024-01-11T07:00:14;29.58;;;15.05;;
71916;SDS011;59793;46.506;6.674;2024-01-11T07:02:39;28.00;;;15.50;;
71916;SDS011;59793;46.506;6.674;2024-01-11T07:05:05;26.77;;;14.13;;
71916;SDS011;59793;46.506;6.674;2024-01-11T07:07:32;26.88;;;14.27;;
71916;SDS011;59793;46.506;6.674;2024-01-11T07:09:58;30.13;;;15.77;;
71916;SDS011;59793;46.506;6.674;2024-01-11T07:12:23;27.75;;;16.15;;
71916;SDS011;59793;46.506;6.674;2024-01-11T07:14:49;27.63;;;15.20;;
71916;SDS011;59793;46.506;6.674;2024-01-11T07:17:14;30.00;;;15.35;;
71916;SDS011;59793;46.506;6.674;2024-01-11T07:19:40;27.25;;;15.82;;
71916;SDS011;59793;46.506;6.674;2024-01-11T07:22:05;24.30;;;13.90;;
71916;SDS011;59793;46.506;6.674;2024-01-11T07:24:30;28.65;;;15.00;;
71916;SDS011;59793;46.506;6.674;2024-01-11T07:27:02;27.15;;;13.70;;
71916;SDS011;59793;46.506;6.674;2024-01-11T07:29:31;26.15;;;14.95;;
71916;SDS011;59793;46.506;6.674;2024-01-11T07:31:57;26.60;;;15.02;;
71916;SDS011;59793;46.506;6.674;2024-01-11T07:34:23;29.77;;;16.63;;
71916;SDS011;59793;46.506;6.674;2024-01-11T07:36:49;28.77;;;15.43;;
71916;SDS011;59793;46.506;6.674;2024-01-11T07:39:14;25.85;;;15.20;;
71916;SDS011;59793;46.506;6.674;2024-01-11T07:41:40;28.83;;;15.90;;
71916;SDS011;59793;46.506;6.674;2024-01-11T07:44:06;28.65;;;15.65;;
71916;SDS011;59793;46.506;6.674;2024-01-11T07:46:31;29.13;;;15.45;;
71916;SDS011;59793;46.506;6.674;2024-01-11T07:48:56;25.30;;;15.00;;
71916;SDS011;59793;46.506;6.674;2024-01-11T07:51:22;30.65;;;15.02;;
71916;SDS011;59793;46.506;6.674;2024-01-11T07:53:47;32.72;;;16.33;;
71916;SDS011;59793;46.506;6.674;2024-01-11T07:56:13;28.98;;;15.85;;
71916;SDS011;59793;46.506;6.674;2024-01-11T07:58:39;35.03;;;17.42;;
71916;SDS011;59793;46.506;6.674;2024-01-11T08:01:06;34.55;;;17.38;;
71916;SDS011;59793;46.506;6.674;2024-01-11T08:03:31;28.60;;;16.35;;
71916;SDS011;59793;46.506;6.674;2024-01-11T08:05:59;29.50;;;15.73;;
71916;SDS011;59793;46.506;6.674;2024-01-11T08:08:25;25.88;;;14.55;;
71916;SDS011;59793;46.506;6.674;2024-01-11T08:10:51;30.67;;;16.73;;
71916;SDS011;59793;46.506;6.674;2024-01-11T08:13:19;29.33;;;14.93;;
71916;SDS011;59793;46.506;6.674;2024-01-11T08:15:49;24.88;;;13.80;;
71916;SDS011;59793;46.506;6.674;2024-01-11T08:18:17;25.70;;;13.80;;
71916;SDS011;59793;46.506;6.674;2024-01-11T08:20:44;29.35;;;16.80;;
71916;SDS011;59793;46.506;6.674;2024-01-11T08:23:09;28.73;;;15.18;;
71916;SDS011;59793;46.506;6.674;2024-01-11T08:25:35;29.27;;;15.25;;
71916;SDS011;59793;46.506;6.674;2024-01-11T08:28:01;26.98;;;15.27;;
71916;SDS011;59793;46.506;6.674;2024-01-11T08:30:29;27.10;;;15.88;;
71916;SDS011;59793;46.506;6.674;2024-01-11T08:32:56;30.55;;;17.10;;
71916;SDS011;59793;46.506;6.674;2024-01-11T08:35:22;29.75;;;16.73;;
71916;SDS011;59793;46.506;6.674;2024-01-11T08:40:22;26.83;;;14.60;;
71916;SDS011;59793;46.506;6.674;2024-01-11T08:42:47;29.95;;;15.02;;
71916;SDS011;59793;46.506;6.674;2024-01-11T08:45:14;30.80;;;15.95;;
71916;SDS011;59793;46.506;6.674;2024-01-11T08:47:45;28.05;;;15.23;;
71916;SDS011;59793;46.506;6.674;2024-01-11T08:50:12;32.35;;;15.57;;
71916;SDS011;59793;46.506;6.674;2024-01-11T08:55:06;27.25;;;14.68;;
71916;SDS011;59793;46.506;6.674;2024-01-11T08:57:32;32.13;;;16.15;;
71916;SDS011;59793;46.506;6.674;2024-01-11T08:59:57;28.05;;;15.32;;
71916;SDS011;59793;46.506;6.674;2024-01-11T09:02:23;30.27;;;15.95;;
71916;SDS011;59793;46.506;6.674;2024-01-11T09:04:48;27.55;;;15.23;;
71916;SDS011;59793;46.506;6.674;2024-01-11T09:07:14;24.42;;;12.93;;
71916;SDS011;59793;46.506;6.674;2024-01-11T09:09:40;26.63;;;15.27;;
71916;SDS011;59793;46.506;6.674;2024-01-11T09:12:06;25.63;;;14.27;;
71916;SDS011;59793;46.506;6.674;2024-01-11T09:14:31;27.92;;;15.07;;
71916;SDS011;59793;46.506;6.674;2024-01-11T09:16:57;23.15;;;12.95;;
71916;SDS011;59793;46.506;6.674;2024-01-11T09:19:23;25.33;;;13.43;;
71916;SDS011;59793;46.506;6.674;2024-01-11T09:21:48;21.42;;;12.27;;
71916;SDS011;59793;46.506;6.674;2024-01-11T09:24:14;22.25;;;12.88;;
71916;SDS011;59793;46.506;6.674;2024-01-11T09:26:39;19.73;;;11.80;;
71916;SDS011;59793;46.506;6.674;2024-01-11T09:29:04;24.10;;;12.50;;
71916;SDS011;59793;46.506;6.674;2024-01-11T09:31:30;19.20;;;11.95;;
71916;SDS011;59793;46.506;6.674;2024-01-11T09:33:58;20.63;;;11.70;;
71916;SDS011;59793;46.506;6.674;2024-01-11T09:36:23;17.95;;;10.88;;
71916;SDS011;59793;46.506;6.674;2024-01-11T09:38:55;20.60;;;11.85;;
71916;SDS011;59793;46.506;6.674;2024-01-11T09:41:20;23.08;;;12.30;;
71916;SDS011;59793;46.506;6.674;2024-01-11T09:43:46;21.67;;;10.68;;
71916;SDS011;59793;46.506;6.674;2024-01-11T09:46:19;18.77;;;11.25;;
71916;SDS011;59793;46.506;6.674;2024-01-11T09:48:46;18.98;;;11.13;;
71916;SDS011;59793;46.506;6.674;2024-01-11T09:51:13;21.63;;;11.80;;
71916;SDS011;59793;46.506;6.674;2024-01-11T09:53:41;13.68;;;8.13;;
71916;SDS011;59793;46.506;6.674;2024-01-11T09:56:08;18.05;;;11.35;;
71916;SDS011;59793;46.506;6.674;2024-01-11T09:58:35;22.17;;;11.32;;
71916;SDS011;59793;46.506;6.674;2024-01-11T10:01:07;20.55;;;11.85;;
71916;SDS011;59793;46.506;6.674;2024-01-11T10:03:40;17.60;;;10.55;;
71916;SDS011;59793;46.506;6.674;2024-01-11T10:06:06;23.35;;;12.23;;
71916;SDS011;59793;46.506;6.674;2024-01-11T10:08:39;19.45;;;12.05;;
71916;SDS011;59793;46.506;6.674;2024-01-11T10:11:04;19.35;;;11.70;;
71916;SDS011;59793;46.506;6.674;2024-01-11T10:13:30;20.00;;;12.35;;
71916;SDS011;59793;46.506;6.674;2024-01-11T10:16:10;18.77;;;11.43;;
71916;SDS011;59793;46.506;6.674;2024-01-11T10:18:40;20.70;;;12.38;;
71916;SDS011;59793;46.506;6.674;2024-01-11T10:21:06;14.43;;;8.93;;
71916;SDS011;59793;46.506;6.674;2024-01-11T10:23:40;19.50;;;10.98;;
71916;SDS011;59793;46.506;6.674;2024-01-11T10:26:06;23.48;;;12.38;;
71916;SDS011;59793;46.506;6.674;2024-01-11T10:28:35;20.15;;;11.73;;
71916;SDS011;59793;46.506;6.674;2024-01-11T10:31:04;21.77;;;12.52;;
71916;SDS011;59793;46.506;6.674;2024-01-11T10:33:33;22.08;;;12.75;;
71916;SDS011;59793;46.506;6.674;2024-01-11T10:38:25;19.45;;;12.15;;
71916;SDS011;59793;46.506;6.674;2024-01-11T10:40:51;21.35;;;11.48;;
71916;SDS011;59793;46.506;6.674;2024-01-11T10:43:21;24.00;;;12.52;;
71916;SDS011;59793;46.506;6.674;2024-01-11T10:45:50;22.40;;;11.90;;
71916;SDS011;59793;46.506;6.674;2024-01-11T10:48:18;25.80;;;13.15;;
71916;SDS011;59793;46.506;6.674;2024-01-11T10:50:48;20.10;;;11.95;;
71916;SDS011;59793;46.506;6.674;2024-01-11T10:53:28;19.20;;;11.43;;
71916;SDS011;59793;46.506;6.674;2024-01-11T10:56:02;20.45;;;11.65;;
71916;SDS011;59793;46.506;6.674;2024-01-11T10:58:29;25.00;;;12.65;;
71916;SDS011;59793;46.506;6.674;2024-01-11T11:00:56;21.35;;;12.25;;
71916;SDS011;59793;46.506;6.674;2024-01-11T11:03:24;19.52;;;11.45;;
71916;SDS011;59793;46.506;6.674;2024-01-11T11:05:53;21.38;;;12.48;;
71916;SDS011;59793;46.506;6.674;2024-01-11T11:08:20;19.60;;;10.95;;
71916;SDS011;59793;46.506;6.674;2024-01-11T11:10:48;21.52;;;12.27;;
71916;SDS011;59793;46.506;6.674;2024-01-11T11:13:37;21.95;;;11.75;;
71916;SDS011;59793;46.506;6.674;2024-01-11T11:18:40;21.55;;;11.45;;
71916;SDS011;59793;46.506;6.674;2024-01-11T11:21:08;22.50;;;13.07;;
71916;SDS011;59793;46.506;6.674;2024-01-11T11:23:35;22.20;;;12.20;;
71916;SDS011;59793;46.506;6.674;2024-01-11T11:26:02;24.65;;;12.82;;
71916;SDS011;59793;46.506;6.674;2024-01-11T11:28:30;24.27;;;13.00;;
71916;SDS011;59793;46.506;6.674;2024-01-11T11:30:59;24.20;;;13.32;;
71916;SDS011;59793;46.506;6.674;2024-01-11T11:33:27;26.70;;;14.10;;
71916;SDS011;59793;46.506;6.674;2024-01-11T11:35:54;20.87;;;10.33;;
71916;SDS011;59793;46.506;6.674;2024-01-11T11:38:23;25.23;;;13.30;;
71916;SDS011;59793;46.506;6.674;2024-01-11T11:40:51;23.83;;;13.13;;
71916;SDS011;59793;46.506;6.674;2024-01-11T11:45:45;26.25;;;12.50;;
71916;SDS011;59793;46.506;6.674;2024-01-11T11:48:57;26.25;;;13.50;;
71916;SDS011;59793;46.506;6.674;2024-01-11T11:51:17;26.35;;;13.25;;
71916;SDS011;59793;46.506;6.674;2024-01-11T11:53:45;26.98;;;13.77;;
71916;SDS011;59793;46.506;6.674;2024-01-11T11:56:11;22.92;;;12.55;;
71916;SDS011;59793;46.506;6.674;2024-01-11T11:58:37;23.03;;;12.47;;
71916;SDS011;59793;46.506;6.674;2024-01-11T12:01:23;23.92;;;11.25;;
71916;SDS011;59793;46.506;6.674;2024-01-11T12:03:48;23.65;;;12.85;;
71916;SDS011;59793;46.506;6.674;2024-01-11T12:06:15;26.58;;;12.77;;
71916;SDS011;59793;46.506;6.674;2024-01-11T12:08:42;22.05;;;11.48;;
71916;SDS011;59793;46.506;6.674;2024-01-11T12:11:08;21.13;;;12.48;;
71916;SDS011;59793;46.506;6.674;2024-01-11T12:13:34;20.52;;;12.27;;
71916;SDS011;59793;46.506;6.674;2024-01-11T12:16:00;28.60;;;14.00;;
71916;SDS011;59793;46.506;6.674;2024-01-11T12:18:25;22.63;;;12.95;;
71916;SDS011;59793;46.506;6.674;2024-01-11T12:20:51;24.00;;;12.40;;
71916;SDS011;59793;46.506;6.674;2024-01-11T12:23:18;21.92;;;12.90;;
71916;SDS011;59793;46.506;6.674;2024-01-11T12:25:43;22.35;;;12.65;;
71916;SDS011;59793;46.506;6.674;2024-01-11T12:28:09;26.65;;;13.55;;
71916;SDS011;59793;46.506;6.674;2024-01-11T12:30:34;25.98;;;13.25;;
71916;SDS011;59793;46.506;6.674;2024-01-11T12:33:00;26.83;;;13.68;;
71916;SDS011;59793;46.506;6.674;2024-01-11T12:35:26;25.25;;;13.30;;
71916;SDS011;59793;46.506;6.674;2024-01-11T12:37:55;27.48;;;13.90;;
71916;SDS011;59793;46.506;6.674;2024-01-11T12:40:24;28.83;;;15.50;;
71916;SDS011;59793;46.506;6.674;2024-01-11T12:42:52;29.15;;;14.10;;
71916;SDS011;59793;46.506;6.674;2024-01-11T12:45:17;32.28;;;14.88;;
71916;SDS011;59793;46.506;6.674;2024-01-11T12:47:43;28.35;;;14.77;;
71916;SDS011;59793;46.506;6.674;2024-01-11T12:50:09;30.77;;;15.15;;
71916;SDS011;59793;46.506;6.674;2024-01-11T12:52:34;29.15;;;14.70;;
71916;SDS011;59793;46.506;6.674;2024-01-11T12:55:00;30.75;;;14.45;;
71916;SDS011;59793;46.506;6.674;2024-01-11T12:57:25;31.17;;;14.82;;
71916;SDS011;59793;46.506;6.674;2024-01-11T12:59:51;22.93;;;11.60;;
71916;SDS011;59793;46.506;6.674;2024-01-11T13:02:17;30.73;;;15.63;;
71916;SDS011;59793;46.506;6.674;2024-01-11T13:04:43;27.45;;;13.75;;
71916;SDS011;59793;46.506;6.674;2024-01-11T13:09:35;25.65;;;12.70;;
71916;SDS011;59793;46.506;6.674;2024-01-11T13:12:00;28.17;;;13.30;;
71916;SDS011;59793;46.506;6.674;2024-01-11T13:14:26;32.50;;;15.15;;
71916;SDS011;59793;46.506;6.674;2024-01-11T13:16:53;28.33;;;13.88;;
71916;SDS011;59793;46.506;6.674;2024-01-11T13:19:19;28.77;;;14.30;;
71916;SDS011;59793;46.506;6.674;2024-01-11T13:21:44;26.95;;;13.27;;
71916;SDS011;59793;46.506;6.674;2024-01-11T13:24:10;25.83;;;13.95;;
71916;SDS011;59793;46.506;6.674;2024-01-11T13:26:35;26.83;;;13.80;;
71916;SDS011;59793;46.506;6.674;2024-01-11T13:29:02;26.95;;;14.70;;
71916;SDS011;59793;46.506;6.674;2024-01-11T13:31:27;26.05;;;12.95;;
71916;SDS011;59793;46.506;6.674;2024-01-11T13:33:53;23.60;;;12.40;;
71916;SDS011;59793;46.506;6.674;2024-01-11T13:36:20;31.73;;;14.25;;
71916;SDS011;59793;46.506;6.674;2024-01-11T13:38:45;28.00;;;13.75;;
71916;SDS011;59793;46.506;6.674;2024-01-11T13:41:11;28.33;;;14.32;;
71916;SDS011;59793;46.506;6.674;2024-01-11T13:43:36;28.13;;;14.25;;
71916;SDS011;59793;46.506;6.674;2024-01-11T13:46:01;25.83;;;14.38;;
71916;SDS011;59793;46.506;6.674;2024-01-11T13:48:29;25.73;;;14.35;;
71916;SDS011;59793;46.506;6.674;2024-01-11T13:50:56;26.27;;;13.32;;
71916;SDS011;59793;46.506;6.674;2024-01-11T13:53:22;26.17;;;13.75;;
71916;SDS011;59793;46.506;6.674;2024-01-11T13:55:48;32.13;;;15.05;;
71916;SDS011;59793;46.506;6.674;2024-01-11T13:58:13;26.23;;;13.77;;
71916;SDS011;59793;46.506;6.674;2024-01-11T14:00:39;22.50;;;12.55;;
71916;SDS011;59793;46.506;6.674;2024-01-11T14:03:04;28.38;;;13.57;;
71916;SDS011;59793;46.506;6.674;2024-01-11T14:05:30;23.33;;;12.75;;
71916;SDS011;59793;46.506;6.674;2024-01-11T14:07:55;21.40;;;12.32;;
71916;SDS011;59793;46.506;6.674;2024-01-11T14:10:24;21.83;;;13.00;;
71916;SDS011;59793;46.506;6.674;2024-01-11T14:12:50;24.73;;;13.65;;
71916;SDS011;59793;46.506;6.674;2024-01-11T14:15:15;22.65;;;12.05;;
71916;SDS011;59793;46.506;6.674;2024-01-11T14:17:41;23.55;;;11.88;;
71916;SDS011;59793;46.506;6.674;2024-01-11T14:20:07;24.70;;;12.05;;
71916;SDS011;59793;46.506;6.674;2024-01-11T14:22:37;19.85;;;11.45;;
71916;SDS011;59793;46.506;6.674;2024-01-11T14:25:02;21.50;;;12.23;;
71916;SDS011;59793;46.506;6.674;2024-01-11T14:27:28;21.77;;;11.93;;
71916;SDS011;59793;46.506;6.674;2024-01-11T14:29:55;21.90;;;11.57;;